TimeCST,TemperatureF,Dew PointF,Humidity,Sea Level PressureIn,VisibilityMPH,Wind Direction,Wind SpeedMPH,Gust SpeedMPH,PrecipitationIn,Events,Conditions,WindDirDegrees,DateUTC
12:53 AM,30.9,28.0,89,30.42,5.0,SW,5.8,-,N/A,,Clear,230,2013-12-26 06:53:00
1:53 AM,30.0,28.0,92,30.42,4.0,WSW,6.9,-,N/A,,Clear,250,2013-12-26 07:53:00
2:53 AM,28.9,27.0,92,30.42,3.0,WSW,5.8,-,N/A,,Clear,240,2013-12-26 08:53:00
3:21 AM,30.2,26.6,86,30.41,2.5,SSW,3.5,-,N/A,,Clear,210,2013-12-26 09:21:00
3:42 AM,28.4,26.6,93,30.41,2.5,West,3.5,-,N/A,,Partly Cloudy,270,2013-12-26 09:42:00
4:00 AM,30.2,26.6,86,30.41,2.0,Calm,Calm,-,N/A,,Mostly Cloudy,0,2013-12-26 10:00:00
4:53 AM,30.0,28.0,92,30.41,1.0,West,4.6,-,N/A,,Overcast,270,2013-12-26 10:53:00
5:01 AM,30.2,28.4,93,30.40,0.2,West,5.8,-,N/A,Fog,Light Freezing Fog,270,2013-12-26 11:01:00
5:16 AM,30.2,28.4,93,30.40,0.2,West,4.6,-,N/A,Fog,Light Freezing Fog,270,2013-12-26 11:16:00
5:53 AM,28.9,27.0,92,30.42,0.2,Calm,Calm,-,N/A,Fog,Light Freezing Fog,0,2013-12-26 11:53:00
6:53 AM,28.0,27.0,96,30.43,0.2,Calm,Calm,-,N/A,Fog,Light Freezing Fog,0,2013-12-26 12:53:00
7:53 AM,28.0,27.0,96,30.46,0.2,Calm,Calm,-,N/A,Fog,Light Freezing Fog,0,2013-12-26 13:53:00
8:22 AM,28.4,28.4,100,30.44,0.2,Calm,Calm,-,N/A,Fog,Light Freezing Fog,0,2013-12-26 14:22:00
8:53 AM,28.9,28.0,96,30.45,0.2,Calm,Calm,-,N/A,Fog,Light Freezing Fog,0,2013-12-26 14:53:00
9:53 AM,30.0,28.9,96,30.48,0.2,Calm,Calm,-,N/A,Fog,Light Freezing Fog,0,2013-12-26 15:53:00
10:53 AM,32.0,32.0,100,30.47,0.2,Calm,Calm,-,N/A,Fog,Fog,0,2013-12-26 16:53:00
11:06 AM,33.8,32.0,93,30.46,0.2,Calm,Calm,-,N/A,Fog,Fog,0,2013-12-26 17:06:00
11:29 AM,33.8,32.0,93,30.44,0.2,Calm,Calm,-,N/A,Fog,Fog,0,2013-12-26 17:29:00
11:42 AM,33.8,33.8,100,30.44,0.2,Calm,Calm,-,N/A,Fog,Fog,0,2013-12-26 17:42:00
11:53 AM,35.1,33.1,92,30.45,0.5,Calm,Calm,-,N/A,Fog,Fog,0,2013-12-26 17:53:00
12:06 PM,35.6,33.8,93,30.43,1.5,ENE,3.5,-,N/A,,Overcast,60,2013-12-26 18:06:00
12:19 PM,35.6,33.8,93,30.42,2.5,Calm,Calm,-,N/A,,Mostly Cloudy,0,2013-12-26 18:19:00
12:26 PM,37.4,33.8,87,30.42,3.0,Calm,Calm,-,N/A,,Mostly Cloudy,0,2013-12-26 18:26:00
12:51 PM,39.2,33.8,81,30.41,4.0,Variable,3.5,-,N/A,,Haze,0,2013-12-26 18:51:00
12:53 PM,39.0,34.0,82,30.42,4.0,North,3.5,-,N/A,,Haze,360,2013-12-26 18:53:00
1:53 PM,45.0,34.0,65,30.40,8.0,NE,4.6,-,N/A,,Clear,50,2013-12-26 19:53:00
2:53 PM,48.0,34.0,58,30.37,10.0,East,3.5,-,N/A,,Clear,80,2013-12-26 20:53:00
3:53 PM,50.0,32.0,50,30.36,10.0,Calm,Calm,-,N/A,,Clear,0,2013-12-26 21:53:00
4:53 PM,46.0,33.1,61,30.36,10.0,ENE,3.5,-,N/A,,Clear,60,2013-12-26 22:53:00
5:53 PM,45.0,32.0,60,30.37,10.0,SE,3.5,-,N/A,,Clear,130,2013-12-26 23:53:00
6:53 PM,39.0,30.9,73,30.37,10.0,Calm,Calm,-,N/A,,Clear,0,2013-12-27 00:53:00
7:53 PM,36.0,30.9,82,30.38,10.0,Calm,Calm,-,N/A,,Clear,0,2013-12-27 01:53:00
8:53 PM,34.0,30.0,85,30.38,9.0,Calm,Calm,-,N/A,,Clear,0,2013-12-27 02:53:00
9:53 PM,34.0,28.9,82,30.40,10.0,North,3.5,-,N/A,,Clear,10,2013-12-27 03:53:00
10:53 PM,32.0,28.0,85,30.41,9.0,Calm,Calm,-,N/A,,Clear,0,2013-12-27 04:53:00
11:53 PM,30.9,28.9,92,30.41,7.0,Calm,Calm,-,N/A,,Clear,0,2013-12-27 05:53:00